Time;durP1;ratioP1;P1;durP2;ratioP2;P2;SDS_P1;SDS_P2;PMS_P1;PMS_P2;Temp;Humidity;BMP_temperature;BMP_pressure;BME280_temperature;BME280_humidity;BME280_pressure;Samples;Min_cycle;Max_cycle;Signal;HPM_P1;HPM_P2
2023/04/29 00:00:06;;;;;;;3.90;1.23;;;;;;;;;;5114788;27;20039;-49
2023/04/29 00:02:34;;;;;;;2.45;0.88;;;;;;;;;;5089217;28;20039;-47
2023/04/29 00:05:03;;;;;;;2.23;0.43;;;;;;;;;;5096941;27;20039;-48
2023/04/29 00:07:32;;;;;;;1.25;0.20;;;;;;;;;;5116062;27;20080;-46
2023/04/29 00:10:00;;;;;;;2.55;0.52;;;;;;;;;;5107389;27;20051;-49
2023/04/29 00:12:30;;;;;;;2.05;0.50;;;;;;;;;;5100933;27;20486;-50
2023/04/29 00:14:58;;;;;;;1.95;0.38;;;;;;;;;;5102005;27;20041;-46
2023/04/29 00:17:26;;;;;;;2.80;0.80;;;;;;;;;;5119432;27;20122;-46
2023/04/29 00:19:54;;;;;;;1.50;0.30;;;;;;;;;;5100407;27;20552;-46
2023/04/29 00:22:21;;;;;;;2.50;0.73;;;;;;;;;;5114668;27;20050;-46
2023/04/29 00:24:49;;;;;;;1.70;0.47;;;;;;;;;;5086935;27;20540;-48
2023/04/29 00:27:17;;;;;;;1.70;0.38;;;;;;;;;;5101903;27;20050;-46
2023/04/29 00:29:46;;;;;;;1.70;0.50;;;;;;;;;;5111284;27;20111;-47
2023/04/29 00:32:14;;;;;;;1.88;0.40;;;;;;;;;;5110940;27;20121;-49
2023/04/29 00:34:42;;;;;;;1.80;0.43;;;;;;;;;;5101191;27;20034;-48
2023/04/29 00:37:09;;;;;;;1.98;0.47;;;;;;;;;;5108865;27;20130;-48
2023/04/29 00:39:37;;;;;;;2.75;0.65;;;;;;;;;;5110456;27;20098;-46
2023/04/29 00:42:04;;;;;;;1.90;0.40;;;;;;;;;;5114399;27;20134;-47
2023/04/29 00:44:32;;;;;;;2.00;0.52;;;;;;;;;;5113869;27;20042;-46
2023/04/29 00:47:01;;;;;;;2.40;0.68;;;;;;;;;;5099208;27;20110;-47
2023/04/29 00:49:29;;;;;;;2.65;0.57;;;;;;;;;;5091501;27;20100;-47
2023/04/29 00:51:57;;;;;;;2.63;0.80;;;;;;;;;;5087386;27;20034;-50
2023/04/29 00:54:25;;;;;;;1.90;0.60;;;;;;;;;;5106923;27;20046;-50
2023/04/29 00:56:54;;;;;;;2.45;0.55;;;;;;;;;;5102971;27;20449;-47
2023/04/29 00:59:22;;;;;;;3.95;0.65;;;;;;;;;;5086834;27;20438;-46
2023/04/29 01:01:51;;;;;;;1.85;0.55;;;;;;;;;;5097660;27;20048;-46
2023/04/29 01:04:20;;;;;;;2.95;0.73;;;;;;;;;;5096515;27;20807;-46
2023/04/29 01:06:55;;;;;;;2.03;0.53;;;;;;;;;;5116601;27;20043;-47
2023/04/29 01:09:33;;;;;;;2.22;0.68;;;;;;;;;;5110468;27;20681;-46
2023/04/29 01:12:06;;;;;;;1.58;0.35;;;;;;;;;;5109800;27;20049;-51
2023/04/29 01:14:34;;;;;;;2.05;0.43;;;;;;;;;;5090957;27;20043;-49
2023/04/29 01:17:06;;;;;;;2.35;0.95;;;;;;;;;;5107465;27;20130;-46
2023/04/29 01:19:40;;;;;;;1.70;0.47;;;;;;;;;;5110295;27;20588;-48
2023/04/29 01:22:08;;;;;;;1.88;0.50;;;;;;;;;;5092034;28;20040;-48
2023/04/29 01:24:37;;;;;;;1.20;0.30;;;;;;;;;;5103456;27;20111;-49
2023/04/29 01:27:09;;;;;;;1.30;0.30;;;;;;;;;;5107038;27;20120;-48
2023/04/29 01:29:42;;;;;;;2.17;0.38;;;;;;;;;;5098208;27;20536;-47
2023/04/29 01:32:13;;;;;;;2.00;0.50;;;;;;;;;;5105777;27;20067;-48
2023/04/29 01:34:49;;;;;;;2.47;0.68;;;;;;;;;;5099168;27;20401;-46
2023/04/29 01:37:19;;;;;;;1.65;0.60;;;;;;;;;;5096028;27;20058;-46
2023/04/29 01:39:52;;;;;;;1.63;0.32;;;;;;;;;;5108487;27;20118;-47
2023/04/29 01:42:23;;;;;;;2.38;0.50;;;;;;;;;;5091579;27;20054;-46
2023/04/29 01:44:53;;;;;;;3.03;0.90;;;;;;;;;;5098855;27;20100;-46
2023/04/29 01:47:20;;;;;;;1.70;0.30;;;;;;;;;;5078042;27;20149;-47
2023/04/29 01:49:49;;;;;;;2.20;0.32;;;;;;;;;;5107512;27;20051;-45
2023/04/29 01:52:17;;;;;;;1.60;0.43;;;;;;;;;;5095652;27;20040;-47
2023/04/29 01:54:45;;;;;;;1.65;0.50;;;;;;;;;;5107418;27;20229;-45
2023/04/29 01:57:14;;;;;;;2.00;0.60;;;;;;;;;;5110996;27;20069;-45
2023/04/29 01:59:43;;;;;;;2.40;0.75;;;;;;;;;;5105105;27;20074;-47
2023/04/29 02:02:10;;;;;;;2.83;0.50;;;;;;;;;;5104804;27;20047;-46
2023/04/29 02:04:38;;;;;;;2.17;0.65;;;;;;;;;;5098523;27;20122;-46
2023/04/29 02:07:06;;;;;;;3.03;0.50;;;;;;;;;;5118129;27;20039;-46
2023/04/29 02:09:33;;;;;;;2.83;0.50;;;;;;;;;;5105592;27;20039;-47
2023/04/29 02:12:01;;;;;;;1.75;0.60;;;;;;;;;;5093495;28;20141;-49
2023/04/29 02:14:30;;;;;;;1.40;0.30;;;;;;;;;;5096395;27;20097;-46
2023/04/29 02:16:58;;;;;;;2.08;0.40;;;;;;;;;;5094245;27;20048;-46
2023/04/29 02:19:25;;;;;;;1.60;0.40;;;;;;;;;;5095847;27;20106;-46
2023/04/29 02:21:53;;;;;;;1.70;0.37;;;;;;;;;;5090053;28;20078;-50
2023/04/29 02:24:20;;;;;;;1.77;0.60;;;;;;;;;;5069762;28;20136;-45
2023/04/29 02:26:48;;;;;;;2.13;0.57;;;;;;;;;;5097514;27;20613;-47
2023/04/29 02:29:16;;;;;;;2.20;0.55;;;;;;;;;;5091757;28;20070;-47
2023/04/29 02:31:45;;;;;;;1.25;0.30;;;;;;;;;;5068562;28;20131;-45
2023/04/29 02:34:13;;;;;;;1.43;0.37;;;;;;;;;;5066262;28;20068;-46
2023/04/29 02:36:40;;;;;;;1.92;0.50;;;;;;;;;;5068950;28;20044;-48
2023/04/29 02:39:08;;;;;;;1.40;0.40;;;;;;;;;;5058633;28;20375;-46
2023/04/29 02:41:36;;;;;;;1.38;0.30;;;;;;;;;;5074208;28;20505;-47
2023/04/29 02:44:03;;;;;;;3.20;0.60;;;;;;;;;;5079021;28;20076;-45
2023/04/29 02:46:32;;;;;;;2.33;0.40;;;;;;;;;;5073632;28;20920;-47
2023/04/29 02:49:02;;;;;;;1.60;0.50;;;;;;;;;;5076897;28;20090;-45
2023/04/29 02:51:30;;;;;;;1.98;0.30;;;;;;;;;;5061081;28;20520;-47
2023/04/29 02:53:57;;;;;;;1.90;0.60;;;;;;;;;;5070198;28;20067;-47
2023/04/29 02:56:25;;;;;;;1.50;0.30;;;;;;;;;;5051879;28;20040;-47
2023/04/29 02:58:52;;;;;;;1.90;0.40;;;;;;;;;;5059037;28;20040;-47
2023/04/29 03:01:20;;;;;;;1.63;0.38;;;;;;;;;;5066998;28;20506;-46
2023/04/29 03:03:48;;;;;;;2.17;0.45;;;;;;;;;;5059295;28;20051;-47
2023/04/29 03:06:17;;;;;;;1.40;0.30;;;;;;;;;;5064658;28;20498;-50
2023/04/29 03:08:45;;;;;;;1.70;0.30;;;;;;;;;;5069544;28;20094;-50
2023/04/29 03:11:12;;;;;;;1.33;0.30;;;;;;;;;;5054382;28;20032;-45
2023/04/29 03:13:40;;;;;;;1.60;0.30;;;;;;;;;;5062997;28;20040;-49
2023/04/29 03:16:09;;;;;;;1.27;0.35;;;;;;;;;;5061861;28;20047;-46
2023/04/29 03:18:37;;;;;;;1.42;0.30;;;;;;;;;;5069018;28;20040;-46
2023/04/29 03:21:05;;;;;;;1.67;0.40;;;;;;;;;;5069784;28;20032;-48
2023/04/29 03:23:34;;;;;;;1.50;0.40;;;;;;;;;;5079503;28;20040;-46
2023/04/29 03:26:02;;;;;;;2.03;0.40;;;;;;;;;;5047652;28;20049;-46
2023/04/29 03:28:30;;;;;;;1.50;0.30;;;;;;;;;;5079777;28;20541;-45
2023/04/29 03:30:59;;;;;;;1.63;0.20;;;;;;;;;;5099204;27;20131;-46
2023/04/29 03:33:26;;;;;;;1.20;0.20;;;;;;;;;;5082251;28;20032;-47
2023/04/29 03:35:54;;;;;;;3.87;0.60;;;;;;;;;;5075422;27;20646;-47
2023/04/29 03:38:22;;;;;;;1.70;0.40;;;;;;;;;;5107123;27;20035;-48
2023/04/29 03:40:51;;;;;;;1.65;0.50;;;;;;;;;;5105506;27;20100;-46
2023/04/29 03:43:19;;;;;;;1.20;0.20;;;;;;;;;;5106038;27;20043;-45
2023/04/29 03:45:46;;;;;;;1.38;0.30;;;;;;;;;;5100143;27;20040;-48
2023/04/29 03:48:14;;;;;;;1.43;0.30;;;;;;;;;;5098785;27;20035;-45
2023/04/29 03:50:42;;;;;;;1.38;0.30;;;;;;;;;;5099876;28;20071;-46
2023/04/29 03:53:10;;;;;;;2.10;0.65;;;;;;;;;;5108678;27;20487;-46
2023/04/29 03:55:38;;;;;;;2.13;0.40;;;;;;;;;;5085047;27;20452;-47
2023/04/29 03:58:07;;;;;;;1.35;0.35;;;;;;;;;;5096693;27;20035;-47
2023/04/29 04:00:35;;;;;;;1.27;0.27;;;;;;;;;;5104446;27;20053;-45
2023/04/29 04:03:02;;;;;;;1.00;0.20;;;;;;;;;;5108394;27;20509;-46
2023/04/29 04:05:32;;;;;;;1.45;0.30;;;;;;;;;;5100970;28;20055;-46
2023/04/29 04:08:00;;;;;;;1.55;0.40;;;;;;;;;;5098655;27;20080;-48
2023/04/29 04:10:28;;;;;;;1.40;0.30;;;;;;;;;;5105657;27;20067;-46
2023/04/29 04:12:56;;;;;;;1.40;0.23;;;;;;;;;;5093815;27;20045;-47
2023/04/29 04:15:25;;;;;;;2.78;0.50;;;;;;;;;;5092072;28;20130;-46
2023/04/29 04:17:53;;;;;;;0.80;0.20;;;;;;;;;;5104551;27;20043;-47
2023/04/29 04:20:21;;;;;;;1.17;0.25;;;;;;;;;;5097119;27;20039;-45
2023/04/29 04:22:48;;;;;;;1.90;0.30;;;;;;;;;;5112752;27;20070;-46
2023/04/29 04:25:16;;;;;;;2.23;0.87;;;;;;;;;;5104027;27;20085;-45
2023/04/29 04:27:43;;;;;;;1.90;0.22;;;;;;;;;;5105764;27;20075;-48
2023/04/29 04:30:11;;;;;;;1.77;0.50;;;;;;;;;;5059620;27;1158503;-46
2023/04/29 04:32:40;;;;;;;1.73;0.40;;;;;;;;;;5105255;27;20785;-47
2023/04/29 04:35:08;;;;;;;1.55;0.43;;;;;;;;;;5099816;27;20039;-47
2023/04/29 04:37:36;;;;;;;0.70;0.10;;;;;;;;;;5096349;27;20077;-46
2023/04/29 04:40:04;;;;;;;1.50;0.28;;;;;;;;;;5109303;27;20118;-47
2023/04/29 04:42:32;;;;;;;0.98;0.20;;;;;;;;;;5113792;27;20047;-46
2023/04/29 04:44:59;;;;;;;0.80;0.10;;;;;;;;;;5100027;27;20040;-45
2023/04/29 04:47:27;;;;;;;1.15;0.20;;;;;;;;;;5118587;27;20130;-49
2023/04/29 04:49:56;;;;;;;1.00;0.20;;;;;;;;;;5098539;27;20036;-47
2023/04/29 04:52:24;;;;;;;1.27;0.22;;;;;;;;;;5107865;27;20122;-47
2023/04/29 04:54:52;;;;;;;1.30;0.25;;;;;;;;;;5094004;27;20047;-49
2023/04/29 04:57:19;;;;;;;1.20;0.30;;;;;;;;;;5111958;27;20062;-46
2023/04/29 04:59:47;;;;;;;1.40;0.35;;;;;;;;;;5106832;27;20036;-46
2023/04/29 05:02:15;;;;;;;1.10;0.20;;;;;;;;;;5100580;27;20131;-47
2023/04/29 05:04:43;;;;;;;1.20;0.30;;;;;;;;;;5108003;27;20047;-48
2023/04/29 05:07:12;;;;;;;1.42;0.50;;;;;;;;;;5113777;27;20039;-46
2023/04/29 05:09:40;;;;;;;1.20;0.20;;;;;;;;;;5095643;27;20044;-47
2023/04/29 05:12:07;;;;;;;1.15;0.22;;;;;;;;;;5109914;27;20122;-47
2023/04/29 05:14:35;;;;;;;1.13;0.20;;;;;;;;;;5099570;27;20044;-47
2023/04/29 05:17:02;;;;;;;1.20;0.20;;;;;;;;;;5101184;27;20035;-46
2023/04/29 05:19:30;;;;;;;1.25;0.25;;;;;;;;;;5109225;27;20040;-45
2023/04/29 05:21:58;;;;;;;1.07;0.20;;;;;;;;;;5105401;27;20084;-46
2023/04/29 05:24:29;;;;;;;1.55;0.40;;;;;;;;;;5110891;27;20130;-45
2023/04/29 05:26:57;;;;;;;1.20;0.20;;;;;;;;;;5101894;27;20416;-45
2023/04/29 05:29:26;;;;;;;1.27;0.30;;;;;;;;;;5101096;27;20120;-46
2023/04/29 05:31:53;;;;;;;1.10;0.20;;;;;;;;;;5096120;27;20520;-45
2023/04/29 05:34:21;;;;;;;1.10;0.20;;;;;;;;;;5102936;27;20064;-47
2023/04/29 05:36:49;;;;;;;3.00;0.22;;;;;;;;;;5107652;27;20125;-46
2023/04/29 05:39:17;;;;;;;1.17;0.20;;;;;;;;;;5095338;27;20518;-45
2023/04/29 05:41:46;;;;;;;1.42;0.47;;;;;;;;;;5110908;27;20042;-50
2023/04/29 05:44:14;;;;;;;1.42;0.30;;;;;;;;;;5103724;27;20063;-46
2023/04/29 05:46:42;;;;;;;1.10;0.20;;;;;;;;;;5108564;27;20043;-46
2023/04/29 05:49:09;;;;;;;1.58;0.30;;;;;;;;;;5087770;27;20765;-47
2023/04/29 05:51:37;;;;;;;1.50;0.35;;;;;;;;;;5103032;27;20142;-46
2023/04/29 05:54:05;;;;;;;1.15;0.20;;;;;;;;;;5105827;27;20148;-47
2023/04/29 05:56:32;;;;;;;1.98;0.52;;;;;;;;;;5105106;27;20067;-48
2023/04/29 05:59:02;;;;;;;1.60;0.30;;;;;;;;;;5106153;27;20068;-46
2023/04/29 06:01:30;;;;;;;1.30;0.30;;;;;;;;;;5104922;27;20717;-48
2023/04/29 06:03:58;;;;;;;1.48;0.40;;;;;;;;;;5106024;27;20035;-46
2023/04/29 06:06:27;;;;;;;1.05;0.20;;;;;;;;;;5108806;27;20110;-48
2023/04/29 06:08:55;;;;;;;1.50;0.30;;;;;;;;;;5107713;27;20047;-46
2023/04/29 06:11:23;;;;;;;1.03;0.20;;;;;;;;;;5115748;27;20058;-46
2023/04/29 06:13:50;;;;;;;1.50;0.30;;;;;;;;;;5101299;27;20039;-47
2023/04/29 06:16:20;;;;;;;1.33;0.30;;;;;;;;;;5115401;27;20082;-48
2023/04/29 06:18:47;;;;;;;1.40;0.22;;;;;;;;;;5100659;27;20504;-46
2023/04/29 06:21:15;;;;;;;1.00;0.20;;;;;;;;;;5107386;27;20039;-46
2023/04/29 06:23:43;;;;;;;1.13;0.20;;;;;;;;;;5098374;27;20039;-46
2023/04/29 06:26:10;;;;;;;1.73;0.40;;;;;;;;;;5097163;27;20132;-49
2023/04/29 06:28:38;;;;;;;1.38;0.20;;;;;;;;;;5107054;27;20126;-50
2023/04/29 06:31:06;;;;;;;1.35;0.30;;;;;;;;;;5098151;27;20065;-46
2023/04/29 06:33:35;;;;;;;1.40;0.30;;;;;;;;;;5098113;27;20042;-47
2023/04/29 06:36:03;;;;;;;1.87;0.37;;;;;;;;;;5099459;27;20035;-46
2023/04/29 06:38:31;;;;;;;1.20;0.30;;;;;;;;;;5099157;27;20139;-46
2023/04/29 06:40:59;;;;;;;1.65;0.30;;;;;;;;;;5102618;27;20035;-48
2023/04/29 06:43:27;;;;;;;1.85;0.55;;;;;;;;;;5097020;27;20114;-47
2023/04/29 06:45:55;;;;;;;1.58;0.25;;;;;;;;;;5098548;28;20062;-48
2023/04/29 06:48:23;;;;;;;1.17;0.27;;;;;;;;;;5093735;27;20437;-46
2023/04/29 06:50:52;;;;;;;2.13;0.73;;;;;;;;;;5109866;28;20054;-46
2023/04/29 06:53:20;;;;;;;2.17;0.30;;;;;;;;;;5104020;27;20044;-46
2023/04/29 06:55:48;;;;;;;1.80;0.40;;;;;;;;;;5107619;27;20122;-46
2023/04/29 06:58:17;;;;;;;1.38;0.30;;;;;;;;;;5110696;27;20138;-47
2023/04/29 07:00:45;;;;;;;1.37;0.27;;;;;;;;;;5099011;27;20035;-48
2023/04/29 07:03:13;;;;;;;1.15;0.25;;;;;;;;;;5104027;27;20598;-46
2023/04/29 07:05:44;;;;;;;1.63;0.57;;;;;;;;;;5104726;27;20077;-46
2023/04/29 07:08:13;;;;;;;1.48;0.30;;;;;;;;;;5098813;28;20032;-46
2023/04/29 07:10:41;;;;;;;2.22;0.50;;;;;;;;;;5107215;27;20061;-45
2023/04/29 07:13:09;;;;;;;1.63;0.43;;;;;;;;;;5099144;27;20051;-45
2023/04/29 07:15:37;;;;;;;1.33;0.25;;;;;;;;;;5093018;27;20092;-48
2023/04/29 07:18:05;;;;;;;1.67;0.32;;;;;;;;;;5102790;27;20489;-48
2023/04/29 07:20:33;;;;;;;1.85;0.50;;;;;;;;;;5096744;27;20130;-48
2023/04/29 07:23:00;;;;;;;3.17;0.50;;;;;;;;;;5118607;27;20085;-46
2023/04/29 07:25:29;;;;;;;1.70;0.40;;;;;;;;;;5097120;27;20071;-47
2023/04/29 07:27:57;;;;;;;1.48;0.40;;;;;;;;;;5111460;27;20072;-48
2023/04/29 07:30:25;;;;;;;1.75;0.40;;;;;;;;;;5075749;28;20070;-48
2023/04/29 07:32:54;;;;;;;2.75;0.85;;;;;;;;;;5067929;28;20566;-48
2023/04/29 07:35:22;;;;;;;1.95;0.60;;;;;;;;;;5072496;28;20518;-46
2023/04/29 07:37:49;;;;;;;2.00;0.50;;;;;;;;;;5067662;28;20036;-47
2023/04/29 07:40:17;;;;;;;2.17;0.55;;;;;;;;;;5070681;28;20131;-47
2023/04/29 07:42:46;;;;;;;2.08;0.77;;;;;;;;;;5071068;28;20140;-47
2023/04/29 07:45:14;;;;;;;1.55;0.40;;;;;;;;;;5053552;28;20044;-46
2023/04/29 07:47:41;;;;;;;1.55;0.35;;;;;;;;;;5068447;28;20044;-45
2023/04/29 07:50:10;;;;;;;1.80;0.60;;;;;;;;;;5067246;28;20040;-50
2023/04/29 07:52:38;;;;;;;1.77;0.52;;;;;;;;;;5054241;28;20445;-50
2023/04/29 07:55:06;;;;;;;3.22;0.40;;;;;;;;;;5058447;28;20032;-49
2023/04/29 07:57:33;;;;;;;1.67;0.47;;;;;;;;;;5069251;28;20039;-46
2023/04/29 08:00:02;;;;;;;2.20;0.65;;;;;;;;;;5070985;28;20314;-48
2023/04/29 08:02:31;;;;;;;2.43;0.50;;;;;;;;;;5064943;28;20054;-48
2023/04/29 08:04:59;;;;;;;1.48;0.50;;;;;;;;;;5072954;28;20647;-46
2023/04/29 08:07:27;;;;;;;2.50;0.50;;;;;;;;;;5070468;28;20036;-45
2023/04/29 08:09:55;;;;;;;3.17;0.98;;;;;;;;;;5067870;28;20044;-47
2023/04/29 08:12:23;;;;;;;3.72;1.05;;;;;;;;;;5066554;28;20606;-47
2023/04/29 08:14:50;;;;;;;3.40;1.00;;;;;;;;;;5064116;28;20045;-46
2023/04/29 08:17:20;;;;;;;2.60;0.70;;;;;;;;;;5065989;28;20500;-49
2023/04/29 08:19:47;;;;;;;2.47;0.63;;;;;;;;;;5060573;28;20036;-47
2023/04/29 08:22:15;;;;;;;2.38;0.70;;;;;;;;;;5069559;28;20049;-46
2023/04/29 08:24:44;;;;;;;2.83;0.52;;;;;;;;;;5069810;28;20541;-46
2023/04/29 08:27:11;;;;;;;1.57;0.33;;;;;;;;;;5060295;28;20055;-47
2023/04/29 08:29:39;;;;;;;2.63;0.70;;;;;;;;;;5081079;27;20097;-47
2023/04/29 08:32:06;;;;;;;3.33;0.77;;;;;;;;;;5115447;27;20080;-47
2023/04/29 08:34:36;;;;;;;3.78;0.63;;;;;;;;;;5103843;27;20035;-47
2023/04/29 08:37:04;;;;;;;2.20;0.50;;;;;;;;;;5098657;27;20047;-46
2023/04/29 08:39:32;;;;;;;2.17;0.57;;;;;;;;;;5098651;27;20380;-46
2023/04/29 08:42:00;;;;;;;3.28;0.95;;;;;;;;;;5113580;27;20064;-48
2023/04/29 08:44:29;;;;;;;3.00;0.88;;;;;;;;;;5107270;27;20046;-46
2023/04/29 08:46:59;;;;;;;4.03;0.80;;;;;;;;;;5105457;27;20122;-46
2023/04/29 08:49:27;;;;;;;2.97;0.82;;;;;;;;;;5110148;27;20109;-46
2023/04/29 08:51:57;;;;;;;2.03;0.40;;;;;;;;;;5104257;27;20050;-46
2023/04/29 08:54:25;;;;;;;2.75;0.85;;;;;;;;;;5114040;27;20035;-46
2023/04/29 08:56:53;;;;;;;1.85;0.80;;;;;;;;;;5098793;27;20039;-46
2023/04/29 08:59:20;;;;;;;2.65;0.60;;;;;;;;;;5104376;27;20476;-45
2023/04/29 09:01:50;;;;;;;2.47;0.60;;;;;;;;;;5098751;27;20545;-48
2023/04/29 09:04:21;;;;;;;2.93;1.00;;;;;;;;;;5093826;27;20149;-46
2023/04/29 09:06:50;;;;;;;2.30;0.85;;;;;;;;;;5097947;27;20051;-45
2023/04/29 09:09:19;;;;;;;2.88;0.80;;;;;;;;;;5092411;27;20035;-46
2023/04/29 09:11:48;;;;;;;2.45;0.95;;;;;;;;;;5097886;28;20101;-46
2023/04/29 09:14:16;;;;;;;1.95;0.52;;;;;;;;;;5095343;27;20043;-45
2023/04/29 09:16:46;;;;;;;3.20;0.53;;;;;;;;;;5106425;27;20039;-47
2023/04/29 09:19:28;;;;;;;2.47;0.73;;;;;;;;;;5098350;27;20055;-46
2023/04/29 09:21:57;;;;;;;3.38;0.93;;;;;;;;;;5093876;27;20089;-46
2023/04/29 09:24:26;;;;;;;4.03;1.00;;;;;;;;;;5116071;27;20077;-46
2023/04/29 09:26:54;;;;;;;1.52;0.32;;;;;;;;;;5097868;27;20813;-46
2023/04/29 09:29:22;;;;;;;2.40;0.70;;;;;;;;;;5101449;27;20285;-46
2023/04/29 09:31:52;;;;;;;2.00;0.55;;;;;;;;;;5095314;27;20035;-49
2023/04/29 09:34:30;;;;;;;2.75;0.85;;;;;;;;;;5097326;27;20039;-44
2023/04/29 09:36:58;;;;;;;2.90;1.25;;;;;;;;;;5094518;27;20051;-46
2023/04/29 09:39:37;;;;;;;2.53;0.80;;;;;;;;;;5100262;27;20039;-46
2023/04/29 09:42:05;;;;;;;5.40;1.40;;;;;;;;;;5095690;27;20561;-47
2023/04/29 09:44:34;;;;;;;4.10;1.27;;;;;;;;;;5098145;27;20035;-47
2023/04/29 09:47:03;;;;;;;3.30;1.17;;;;;;;;;;5105795;27;20039;-46
2023/04/29 09:49:34;;;;;;;3.10;1.10;;;;;;;;;;5106603;27;20126;-43
2023/04/29 09:52:02;;;;;;;2.78;1.02;;;;;;;;;;5103859;27;20049;-45
2023/04/29 09:54:32;;;;;;;5.20;1.20;;;;;;;;;;5111452;27;20121;-46
2023/04/29 09:57:01;;;;;;;2.67;0.95;;;;;;;;;;5114881;27;20151;-47
2023/04/29 09:59:28;;;;;;;8.68;1.20;;;;;;;;;;5108871;27;20126;-46
2023/04/29 10:01:57;;;;;;;3.65;1.30;;;;;;;;;;5084983;27;20027;-47
2023/04/29 10:04:26;;;;;;;3.35;1.45;;;;;;;;;;5107643;27;20042;-45
2023/04/29 10:06:55;;;;;;;3.90;0.97;;;;;;;;;;5106826;27;20054;-44
2023/04/29 10:09:23;;;;;;;2.92;1.10;;;;;;;;;;5112165;27;20212;-45
2023/04/29 10:11:53;;;;;;;2.42;0.55;;;;;;;;;;5114036;27;20035;-47
2023/04/29 10:14:21;;;;;;;2.50;0.60;;;;;;;;;;5096290;27;20124;-44
2023/04/29 10:16:50;;;;;;;3.15;0.82;;;;;;;;;;5104957;27;20099;-47
2023/04/29 10:19:26;;;;;;;3.00;1.00;;;;;;;;;;5099484;27;20736;-47
2023/04/29 10:21:54;;;;;;;5.28;1.35;;;;;;;;;;5101810;27;20048;-45
2023/04/29 10:24:22;;;;;;;3.70;0.95;;;;;;;;;;5102438;27;20035;-46
2023/04/29 10:26:50;;;;;;;3.22;0.88;;;;;;;;;;5110464;27;20112;-43
2023/04/29 10:29:20;;;;;;;5.40;1.30;;;;;;;;;;5099549;28;20101;-46
2023/04/29 10:31:49;;;;;;;2.93;0.90;;;;;;;;;;5105227;27;20046;-45
2023/04/29 10:34:17;;;;;;;2.63;1.20;;;;;;;;;;5100028;27;20084;-47
2023/04/29 10:36:45;;;;;;;3.35;1.23;;;;;;;;;;5114694;27;20040;-47
2023/04/29 10:39:19;;;;;;;2.72;0.77;;;;;;;;;;5097406;27;20663;-47
2023/04/29 10:41:47;;;;;;;3.03;1.08;;;;;;;;;;5098388;27;20071;-46
2023/04/29 10:44:16;;;;;;;3.70;1.27;;;;;;;;;;5098175;27;20111;-47
2023/04/29 10:46:44;;;;;;;3.90;0.88;;;;;;;;;;5104833;27;20077;-48
2023/04/29 10:49:12;;;;;;;3.50;1.00;;;;;;;;;;5105129;27;20071;-48
2023/04/29 10:51:40;;;;;;;5.93;0.88;;;;;;;;;;5097093;27;20064;-47
2023/04/29 10:54:09;;;;;;;2.22;0.70;;;;;;;;;;5118598;27;20159;-48
2023/04/29 10:56:39;;;;;;;2.40;0.53;;;;;;;;;;5108061;27;20047;-49
2023/04/29 10:59:09;;;;;;;3.28;0.88;;;;;;;;;;5103179;27;20572;-50
2023/04/29 11:01:41;;;;;;;2.53;0.75;;;;;;;;;;5112715;27;20036;-45
2023/04/29 11:04:11;;;;;;;2.05;0.47;;;;;;;;;;5092760;27;20638;-46
2023/04/29 11:06:40;;;;;;;3.70;1.20;;;;;;;;;;5117770;27;20042;-45
2023/04/29 11:09:09;;;;;;;1.80;0.50;;;;;;;;;;5102747;27;20035;-46
2023/04/29 11:11:44;;;;;;;2.63;0.70;;;;;;;;;;5114222;27;20043;-47
2023/04/29 11:14:13;;;;;;;2.28;0.73;;;;;;;;;;5102180;27;20044;-48
2023/04/29 11:16:51;;;;;;;3.17;1.00;;;;;;;;;;5096260;27;20044;-46
2023/04/29 11:19:23;;;;;;;2.75;1.20;;;;;;;;;;5098482;27;20040;-46
2023/04/29 11:22:03;;;;;;;2.37;0.80;;;;;;;;;;5095597;27;20078;-45
2023/04/29 11:24:31;;;;;;;3.13;0.88;;;;;;;;;;5106573;27;20115;-47
2023/04/29 11:27:03;;;;;;;2.92;0.93;;;;;;;;;;5111756;27;20040;-47
2023/04/29 11:29:30;;;;;;;2.58;0.90;;;;;;;;;;5102261;27;20060;-45
2023/04/29 11:31:59;;;;;;;2.85;0.93;;;;;;;;;;5107379;27;20047;-46
2023/04/29 11:34:28;;;;;;;2.77;0.83;;;;;;;;;;5099200;27;20028;-46
2023/04/29 11:36:57;;;;;;;2.22;0.73;;;;;;;;;;5109652;27;20043;-49
2023/04/29 11:39:25;;;;;;;3.33;1.10;;;;;;;;;;5112868;27;20040;-49
2023/04/29 11:41:52;;;;;;;3.42;1.30;;;;;;;;;;5094451;27;20119;-45
2023/04/29 11:44:21;;;;;;;2.75;0.82;;;;;;;;;;5096326;28;20078;-47
2023/04/29 11:46:49;;;;;;;3.23;0.90;;;;;;;;;;5105319;27;20054;-46
2023/04/29 11:49:17;;;;;;;2.47;0.68;;;;;;;;;;5106228;27;20050;-51
2023/04/29 11:51:46;;;;;;;2.40;0.70;;;;;;;;;;5101520;27;20439;-47
2023/04/29 11:54:14;;;;;;;2.00;0.60;;;;;;;;;;5084542;27;20031;-46
2023/04/29 11:56:41;;;;;;;2.25;0.68;;;;;;;;;;5114244;27;20053;-46
2023/04/29 11:59:09;;;;;;;2.33;0.60;;;;;;;;;;5108666;27;20300;-45
2023/04/29 12:01:37;;;;;;;3.22;0.93;;;;;;;;;;5102893;27;20043;-45
2023/04/29 12:04:05;;;;;;;2.70;0.88;;;;;;;;;;5107916;27;20214;-48
2023/04/29 12:06:34;;;;;;;3.00;1.25;;;;;;;;;;5098107;27;20035;-46
2023/04/29 12:09:03;;;;;;;3.25;0.80;;;;;;;;;;5106830;27;20075;-45
2023/04/29 12:11:31;;;;;;;2.43;0.80;;;;;;;;;;5099432;27;20036;-47
2023/04/29 12:14:01;;;;;;;2.35;0.70;;;;;;;;;;5104625;27;20066;-49
2023/04/29 12:16:29;;;;;;;2.05;0.60;;;;;;;;;;5111026;27;20049;-48
2023/04/29 12:18:57;;;;;;;3.13;1.02;;;;;;;;;;5105185;27;20039;-47
2023/04/29 12:21:26;;;;;;;2.28;0.73;;;;;;;;;;5108897;27;20043;-45
2023/04/29 12:23:54;;;;;;;1.80;0.60;;;;;;;;;;5097030;27;20061;-46
2023/04/29 12:26:23;;;;;;;2.70;0.85;;;;;;;;;;5111323;27;20119;-46
2023/04/29 12:28:54;;;;;;;3.38;1.13;;;;;;;;;;5112256;27;20062;-49
2023/04/29 12:31:23;;;;;;;3.88;1.23;;;;;;;;;;5094901;27;20035;-47
2023/04/29 12:33:54;;;;;;;2.17;0.70;;;;;;;;;;5097251;27;20074;-45
2023/04/29 12:36:23;;;;;;;3.90;1.00;;;;;;;;;;5112746;27;20031;-46
2023/04/29 12:38:53;;;;;;;2.55;0.80;;;;;;;;;;5099164;27;20721;-46
2023/04/29 12:41:35;;;;;;;2.85;0.93;;;;;;;;;;5118216;27;20103;-48
2023/04/29 12:44:05;;;;;;;2.28;0.73;;;;;;;;;;5099185;27;20020;-47
2023/04/29 12:46:36;;;;;;;1.95;0.50;;;;;;;;;;5101697;27;20084;-45
2023/04/29 12:49:04;;;;;;;2.17;0.70;;;;;;;;;;5106439;27;20046;-48
2023/04/29 12:51:32;;;;;;;3.13;0.85;;;;;;;;;;5102620;27;20068;-48
2023/04/29 12:54:02;;;;;;;2.58;0.90;;;;;;;;;;5109816;27;20070;-46
2023/04/29 12:56:30;;;;;;;3.00;0.90;;;;;;;;;;5098675;27;20031;-45
2023/04/29 12:59:06;;;;;;;2.42;0.88;;;;;;;;;;5114527;27;20059;-48
2023/04/29 13:01:34;;;;;;;2.27;0.67;;;;;;;;;;5103452;27;20377;-46
2023/04/29 13:04:03;;;;;;;2.72;0.82;;;;;;;;;;5098782;27;20776;-45
2023/04/29 13:06:32;;;;;;;2.42;0.73;;;;;;;;;;5107530;27;20058;-48
2023/04/29 13:08:59;;;;;;;4.10;0.80;;;;;;;;;;5103564;27;20058;-45
2023/04/29 13:11:27;;;;;;;2.95;0.70;;;;;;;;;;5112676;27;20043;-45
2023/04/29 13:14:00;;;;;;;2.97;1.03;;;;;;;;;;5099143;27;20052;-45
2023/04/29 13:16:30;;;;;;;2.13;0.65;;;;;;;;;;5118362;27;20059;-46
2023/04/29 13:18:57;;;;;;;3.58;1.05;;;;;;;;;;5097771;27;20044;-47
2023/04/29 13:21:45;;;;;;;2.90;1.05;;;;;;;;;;5107721;27;20046;-47
2023/04/29 13:24:13;;;;;;;1.50;0.40;;;;;;;;;;5098626;27;20257;-46
2023/04/29 13:26:40;;;;;;;3.17;0.77;;;;;;;;;;5096539;27;20080;-45
2023/04/29 13:29:08;;;;;;;2.58;0.75;;;;;;;;;;5104221;27;20489;-47
2023/04/29 13:31:37;;;;;;;2.75;0.80;;;;;;;;;;5104171;27;20039;-49
2023/04/29 13:34:05;;;;;;;2.30;0.77;;;;;;;;;;5101064;27;20590;-45
2023/04/29 13:36:37;;;;;;;4.05;0.80;;;;;;;;;;5104083;27;20194;-45
2023/04/29 13:39:05;;;;;;;2.67;1.00;;;;;;;;;;5105121;27;20736;-45
2023/04/29 13:41:33;;;;;;;3.30;1.30;;;;;;;;;;5101426;27;20048;-46
2023/04/29 13:44:02;;;;;;;2.95;1.00;;;;;;;;;;5092340;27;20036;-48
2023/04/29 13:46:33;;;;;;;2.20;0.60;;;;;;;;;;5086355;27;20114;-47
2023/04/29 13:49:03;;;;;;;1.80;0.50;;;;;;;;;;5111923;27;20043;-46
2023/04/29 13:51:51;;;;;;;2.13;0.60;;;;;;;;;;5102342;27;20051;-46
2023/04/29 13:54:21;;;;;;;2.67;0.90;;;;;;;;;;5097799;27;20046;-47
2023/04/29 13:56:52;;;;;;;3.50;1.00;;;;;;;;;;5105480;27;20126;-47
2023/04/29 13:59:40;;;;;;;2.13;0.65;;;;;;;;;;5111823;27;20039;-51
2023/04/29 14:02:18;;;;;;;3.22;0.70;;;;;;;;;;5105441;27;20042;-48
2023/04/29 14:04:54;;;;;;;1.90;0.50;;;;;;;;;;5096882;27;20600;-51
2023/04/29 14:07:22;;;;;;;3.63;0.73;;;;;;;;;;5101605;27;20035;-46
2023/04/29 14:09:50;;;;;;;2.92;0.85;;;;;;;;;;5112148;27;20047;-49
2023/04/29 14:12:18;;;;;;;2.33;0.80;;;;;;;;;;5107674;27;20678;-47
2023/04/29 14:14:45;;;;;;;2.55;0.90;;;;;;;;;;5108431;27;20069;-45
2023/04/29 14:17:13;;;;;;;2.63;1.00;;;;;;;;;;5100084;27;20110;-45
2023/04/29 14:19:41;;;;;;;2.58;1.00;;;;;;;;;;5104035;27;20040;-46
2023/04/29 14:22:10;;;;;;;2.70;0.70;;;;;;;;;;5104608;27;20047;-47
2023/04/29 14:24:38;;;;;;;4.03;1.27;;;;;;;;;;5098583;27;20591;-48
2023/04/29 14:27:06;;;;;;;2.85;1.10;;;;;;;;;;5107028;27;20067;-47
2023/04/29 14:29:34;;;;;;;2.40;0.80;;;;;;;;;;5103909;28;20051;-47
2023/04/29 14:32:03;;;;;;;3.22;1.02;;;;;;;;;;5110932;27;20036;-46
2023/04/29 14:34:31;;;;;;;3.55;0.70;;;;;;;;;;5115779;27;20032;-48
2023/04/29 14:36:59;;;;;;;2.38;0.60;;;;;;;;;;5115898;27;20057;-46
2023/04/29 14:39:28;;;;;;;2.22;0.63;;;;;;;;;;5113037;27;20031;-44
2023/04/29 14:41:56;;;;;;;2.07;0.60;;;;;;;;;;5115103;27;20063;-45
2023/04/29 14:44:24;;;;;;;3.92;1.40;;;;;;;;;;5105576;27;21558;-45
2023/04/29 14:46:51;;;;;;;2.72;0.65;;;;;;;;;;5087383;27;20142;-45
2023/04/29 14:49:19;;;;;;;2.50;0.70;;;;;;;;;;5119275;27;20090;-46
2023/04/29 14:51:46;;;;;;;2.60;0.80;;;;;;;;;;5104981;27;20114;-46